Latest Weather Observations for Grafton Airport

IDN60801

Issued at 2:32 pm EDT Sunday 4 December 2016 (issued every 30 minutes, with the page automatically refreshed every 10 minutes)

About weather observations | Map of weather stations | Latest weather observations for NSW | Other Formats
Station Details ID: 058161 Name: GRAFTON AIRPORT AWS Lat: -29.76 Lon: 153.03 Height: 25.09 m
Data from the previous 72 hours. | See also: Recent months at Grafton Airport
Date/Time
EDT
Temp
°C
App
Temp
°C
Dew
Point
°C
Rel
Hum
%
Delta-T
°C
Wind Press
QNH
hPa
Press
MSL
hPa
Rain since
9am
mm
Dir  Spd
km/h
Gust
km/h
Spd
kts
Gust
kts
04/02:30pm 30.6 29.3 17.3 45 8.4 E 20 28 11 15 1012.8 1012.7 0.0
04/02:00pm 32.2 34.5 19.8 48 8.2 E 7 19 4 10 1013.0 1012.9 0.0
04/01:30pm 31.3 33.1 20.3 52 7.3 ENE 11 17 6 9 1013.5 1013.4 0.0
04/01:00pm 30.3 32.5 19.6 52 7.0 ESE 7 19 4 10 1014.1 1014.0 0.0
04/12:30pm 29.2 30.6 19.5 56 6.3 N 11 19 6 10 1014.5 1014.4 0.0
04/12:00pm 27.9 29.5 19.1 58 5.7 NNW 9 15 5 8 1014.9 1014.8 0.0
04/11:30am 27.1 29.1 19.2 62 5.1 N 7 13 4 7 1015.4 1015.3 0.0
04/11:00am 25.9 28.0 19.3 67 4.2 NE 7 13 4 7 1015.7 1015.6 0.0
04/10:32am 24.9 27.2 19.5 72 3.5 N 6 9 3 5 1015.9 1015.8 0.0
04/10:30am 25.1 27.7 20.1 74 3.2 NNE 6 9 3 5 1015.9 1015.8 0.0
04/10:00am 23.6 26.3 20.3 82 2.1 NNW 6 11 3 6 1016.0 1015.9 0.0
04/09:30am 21.8 24.1 19.5 87 1.5 NNW 6 9 3 5 1016.2 1016.1 0.0
04/09:00am 20.9 24.2 20.7 99 0.1 ENE 4 9 2 5 1016.0 1015.9 1.6
04/08:46am 20.5 24.5 20.5 100 0.0 CALM 0 0 0 0 1016.1 1016.0 1.6
04/08:30am 20.5 24.1 20.5 100 0.0 S 2 7 1 4 1015.9 1015.8 1.6
04/08:00am 20.1 22.5 20.1 100 0.0 SW 7 11 4 6 1016.2 1016.1 1.6
04/07:30am 19.7 21.9 19.7 100 0.0 WSW 7 11 4 6 1015.9 1015.8 1.6
04/07:00am 19.3 21.5 19.3 100 0.0 SW 6 9 3 5 1015.3 1015.2 1.6
04/06:30am 19.0 21.1 19.0 100 0.0 SW 6 9 3 5 1015.3 1015.2 1.6
04/06:00am 18.6 20.5 18.6 100 0.0 SSW 6 9 3 5 1015.2 1015.1 1.6
04/05:30am 18.3 20.5 18.3 100 0.0 S 4 7 2 4 1015.1 1015.0 1.6
04/05:00am 18.2 20.0 18.2 100 0.0 SSW 6 7 3 4 1014.9 1014.8 1.6
04/04:30am 18.1 20.8 17.8 98 0.2 CALM 0 0 0 0 1014.4 1014.3 1.6
04/04:00am 17.9 20.5 17.4 97 0.3 CALM 0 0 0 0 1014.5 1014.4 1.6
04/03:30am 18.4 21.2 17.9 97 0.3 CALM 0 0 0 0 1014.4 1014.3 1.6
04/03:00am 18.6 21.5 18.1 97 0.3 CALM 0 0 0 0 1014.5 1014.4 1.6
04/02:30am 19.0 22.0 18.5 97 0.3 CALM 0 0 0 0 1014.7 1014.6 1.6
04/02:00am 19.4 22.5 18.7 96 0.4 CALM 0 0 0 0 1014.8 1014.7 1.6
04/01:55am 19.4 22.5 18.6 95 0.5 CALM 0 0 0 0 1014.8 1014.7 1.6
04/01:30am 19.8 23.1 19.1 96 0.4 CALM 0 0 0 0 1014.9 1014.8 1.6
04/01:00am 20.0 23.4 19.3 96 0.4 CALM 0 0 0 0 1015.3 1015.2 1.6
04/12:30am 20.5 23.4 19.8 96 0.4 S 4 7 2 4 1015.7 1015.6 1.6
04/12:00am 20.7 24.0 20.0 96 0.4 SSW 2 9 1 5 1016.0 1015.9 1.6
 
Date/Time
EDT
Temp
°C
App
Temp
°C
Dew
Point
°C
Rel
Hum
%
Delta-T
°C
Wind Press
QNH
hPa
Press
MSL
hPa
Rain since
9am
mm
Dir  Spd
km/h
Gust
km/h
Spd
kts
Gust
kts
03/11:42pm 20.7 23.1 20.0 96 0.4 SSW 7 9 4 5 1016.1 1016.0 1.6
03/11:30pm 20.5 22.7 19.5 94 0.6 SSW 7 9 4 5 1016.0 1015.9 1.6
03/11:00pm 20.9 23.7 19.7 93 0.8 SW 4 7 2 4 1016.0 1015.9 1.6
03/10:30pm 21.2 24.3 19.5 90 1.1 WSW 2 7 1 4 1015.6 1015.5 1.6
03/10:00pm 21.7 24.5 19.6 88 1.3 SE 4 7 2 4 1015.4 1015.3 1.6
03/09:30pm 22.1 24.4 19.8 87 1.5 SSE 7 11 4 6 1015.2 1015.1 1.6
03/09:00pm 22.4 24.4 19.9 86 1.6 SSE 9 11 5 6 1015.3 1015.2 1.6
03/08:30pm 22.5 26.2 19.9 85 1.7 CALM 0 0 0 0 1015.7 1015.6 1.6
03/08:00pm 22.8 26.2 20.1 85 1.7 NW 2 7 1 4 1015.5 1015.4 1.6
03/07:30pm 23.0 25.2 20.3 85 1.7 S 9 13 5 7 1015.2 1015.1 1.6
03/07:00pm 23.3 25.4 20.2 83 2.0 S 9 15 5 8 1013.7 1013.6 1.4
03/06:30pm 24.1 26.4 20.6 81 2.3 SW 9 13 5 7 1013.3 1013.2 1.4
03/06:00pm 22.9 24.3 20.4 86 1.6 N 13 17 7 9 1013.4 1013.3 1.4
03/05:48pm 23.3 24.5 19.9 81 2.2 ENE 13 20 7 11 1013.1 1013.0 1.4
03/05:30pm 24.3 24.3 19.8 76 2.9 SE 19 33 10 18 1014.4 1014.3 0.6
03/05:13pm 25.2 25.4 19.3 70 3.8 ESE 17 26 9 14 1015.2 1015.1 0.0
03/05:00pm 25.9 25.1 18.1 62 4.9 ENE 19 30 10 16 1013.0 1012.9 0.0
03/04:44pm 26.1 25.1 17.5 59 5.4 S 19 28 10 15 1012.9 1012.8 0.0
03/04:30pm 27.8 25.4 15.5 47 7.5 SE 22 37 12 20 1010.9 1010.8 0.0
03/04:00pm 28.7 25.8 15.2 43 8.3 ESE 24 39 13 21 1010.6 1010.5 0.0
03/03:30pm 29.1 25.9 16.3 46 8.0 SE 28 48 15 26 1011.3 1011.2 0.0
03/03:24pm 28.4 24.8 17.6 52 6.8 SSE 33 56 18 30 1011.5 1011.4 0.0
03/03:23pm 28.3 24.8 17.8 53 6.7 SSE 33 56 18 30 1011.5 1011.4 0.0
03/03:06pm 28.9 26.0 19.2 55 6.3 SSE 33 57 18 31 1012.2 1012.1 0.0
03/03:00pm 30.0 28.5 19.4 53 6.9 SE 26 48 14 26 1010.9 1010.8 0.0
03/02:30pm 31.7 30.0 19.7 49 7.9 ESE 28 41 15 22 1010.4 1010.3 0.0
03/02:00pm 35.1 33.8 17.3 34 11.5 ENE 20 32 11 17 1010.2 1010.1 0.0
03/01:30pm 36.9 35.0 13.0 24 14.6 NNE 15 24 8 13 1010.8 1010.7 0.0
03/01:00pm 36.1 33.8 13.0 25 14.0 ENE 17 24 9 13 1011.4 1011.3 0.0
03/12:30pm 35.0 35.0 15.3 30 12.3 NNW 9 17 5 9 1011.9 1011.8 0.0
03/12:00pm 33.1 33.9 17.3 39 10.1 NNE 9 15 5 8 1012.5 1012.4 0.0
03/11:30am 32.2 34.0 19.5 47 8.4 NE 9 15 5 8 1012.8 1012.7 0.0
03/11:00am 31.4 34.0 20.4 52 7.3 NNE 7 13 4 7 1013.2 1013.1 0.0
03/10:30am 29.5 31.8 19.8 56 6.4 NE 7 15 4 8 1013.6 1013.5 0.0
03/10:00am 28.5 31.1 20.5 62 5.3 NE 7 13 4 7 1013.7 1013.6 0.0
03/09:30am 27.1 30.1 21.2 70 3.9 NNE 7 13 4 7 1013.9 1013.8 0.0
03/09:00am 25.4 27.6 21.1 77 2.8 N 11 17 6 9 1013.9 1013.8 0.0
03/08:30am 23.8 26.3 21.1 85 1.8 N 9 13 5 7 1013.9 1013.8 0.0
03/08:00am 23.1 26.1 21.2 89 1.2 N 7 9 4 5 1013.7 1013.6 0.0
03/07:30am 22.4 25.5 21.0 92 0.9 N 6 9 3 5 1013.5 1013.4 0.0
03/07:00am 21.9 26.1 20.9 94 0.7 CALM 0 0 0 0 1013.4 1013.3 0.0
03/06:30am 21.9 25.9 20.5 92 0.9 CALM 0 0 0 0 1013.1 1013.0 0.0
03/06:00am 21.8 25.7 20.4 92 0.9 CALM 0 2 0 1 1012.8 1012.7 0.0
03/05:59am 21.8 25.7 20.3 91 1.0 CALM 0 6 0 3 1012.8 1012.7 0.0
03/05:30am 22.0 24.7 20.3 90 1.1 SW 6 7 3 4 1012.6 1012.5 0.0
03/05:00am 22.4 25.6 20.5 89 1.2 SSW 4 7 2 4 1012.4 1012.3 0.0
03/04:30am 22.5 25.3 20.8 90 1.1 S 7 9 4 5 1012.3 1012.2 0.0
03/04:00am 22.4 25.3 20.7 90 1.1 SW 6 7 3 4 1012.2 1012.1 0.0
03/03:30am 22.3 25.3 20.8 91 1.0 S 6 7 3 4 1012.1 1012.0 0.0
03/03:03am 22.2 25.0 20.8 92 0.9 SSW 7 11 4 6 1012.3 1012.2 0.0
03/03:00am 22.2 25.2 20.8 92 0.9 SSW 6 9 3 5 1012.2 1012.1 0.0
03/02:44am 22.1 25.4 20.7 92 0.9 SSW 4 13 2 7 1012.5 1012.4 0.0
03/02:30am 22.0 24.9 20.6 92 0.9 SSE 6 9 3 5 1012.7 1012.6 0.0
03/02:00am 21.8 24.7 20.6 93 0.8 ESE 6 13 3 7 1013.0 1012.9 0.0
03/01:30am 21.6 23.4 20.4 93 0.8 SSE 11 20 6 11 1013.2 1013.1 0.0
03/01:01am 21.6 23.3 20.1 91 1.0 SE 11 20 6 11 1013.4 1013.3 0.0
03/01:00am 21.6 23.3 20.1 91 1.0 SSE 11 20 6 11 1013.4 1013.3 0.0
03/12:30am 22.0 22.6 19.5 86 1.6 SSE 15 20 8 11 1013.4 1013.3 0.0
03/12:00am 22.1 24.1 19.1 83 1.9 S 7 11 4 6 1013.4 1013.3 0.0
 
Date/Time
EDT
Temp
°C
App
Temp
°C
Dew
Point
°C
Rel
Hum
%
Delta-T
°C
Wind Press
QNH
hPa
Press
MSL
hPa
Rain since
9am
mm
Dir  Spd
km/h
Gust
km/h
Spd
kts
Gust
kts
02/11:30pm 22.6 24.7 19.0 80 2.3 S 6 9 3 5 1013.2 1013.1 0.0
02/11:00pm 22.9 24.5 19.1 79 2.4 SSE 9 11 5 6 1013.2 1013.1 0.0
02/10:30pm 23.4 24.8 18.7 75 3.0 S 9 11 5 6 1013.0 1012.9 0.0
02/10:00pm 23.8 25.8 18.7 73 3.2 SSE 6 11 3 6 1012.3 1012.2 0.0
02/09:30pm 23.8 25.3 18.0 70 3.6 ENE 7 9 4 5 1012.1 1012.0 0.0
02/09:00pm 25.1 26.3 18.3 66 4.3 S 9 11 5 6 1011.9 1011.8 0.0
02/08:30pm 25.7 27.4 18.1 63 4.8 ESE 6 9 3 5 1011.2 1011.1 0.0
02/08:00pm 26.2 28.7 18.1 61 5.1 ENE 2 7 1 4 1010.8 1010.7 0.0
02/07:30pm 27.1 28.1 17.8 56 5.9 NE 9 13 5 7 1010.3 1010.2 0.0
02/07:00pm 28.3 29.8 18.1 54 6.5 NNE 7 9 4 5 1009.8 1009.7 0.0
02/06:30pm 29.0 29.6 17.8 50 7.1 NE 11 15 6 8 1009.2 1009.1 0.0
02/06:00pm 30.1 30.0 16.9 45 8.3 ENE 13 20 7 11 1008.7 1008.6 0.0
02/05:30pm 32.6 32.3 16.4 37 10.2 ENE 13 20 7 11 1008.0 1007.9 0.0
02/05:00pm 33.7 32.9 17.0 37 10.7 ENE 17 22 9 12 1007.6 1007.5 0.0
02/04:30pm 33.9 32.4 16.7 35 10.9 ENE 20 26 11 14 1007.3 1007.2 0.0
02/04:00pm 33.7 33.0 17.4 37 10.5 E 17 26 9 14 1007.3 1007.2 0.0
02/03:30pm 35.2 33.0 14.5 29 12.8 NE 19 24 10 13 1007.0 1006.9 0.0
02/03:00pm 35.9 34.3 14.0 27 13.5 ENE 15 24 8 13 1007.0 1006.9 0.0
02/02:30pm 36.2 34.5 13.6 25 13.9 NNE 15 26 8 14 1007.1 1007.0 0.0
02/02:00pm 36.3 34.2 12.5 24 14.4 NNE 15 26 8 14 1007.4 1007.3 0.0
02/01:30pm 35.2 34.7 16.0 31 12.1 NNE 13 20 7 11 1008.0 1007.9 0.0
02/01:00pm 34.1 33.8 16.5 35 11.2 NE 13 20 7 11 1008.3 1008.2 0.0
02/12:30pm 33.0 32.8 16.8 38 10.3 NE 13 20 7 11 1008.7 1008.6 0.0
02/12:00pm 31.8 31.7 16.9 40 9.5 NNE 13 22 7 12 1009.0 1008.9 0.0
02/11:30am 31.0 31.3 18.0 45 8.3 NNE 13 20 7 11 1009.5 1009.4 0.0
02/11:00am 29.9 30.6 18.0 48 7.6 NNE 11 20 6 11 1009.9 1009.8 0.0
02/10:30am 28.7 29.1 18.2 53 6.7 NNE 13 19 7 10 1010.0 1009.9 0.0
02/10:00am 27.9 29.4 18.9 58 5.8 NNE 9 17 5 9 1010.3 1010.2 0.0
02/09:30am 26.6 27.8 19.0 63 4.9 NNE 11 17 6 9 1010.5 1010.4 0.0
02/09:00am 24.7 26.7 19.1 71 3.6 N 7 11 4 6 1010.8 1010.7 0.0
02/08:30am 22.8 25.3 19.8 83 1.9 NNW 6 9 3 5 1011.1 1011.0 0.0
02/08:00am 20.7 23.4 19.4 92 0.8 WNW 4 9 2 5 1011.0 1010.9 0.0
02/07:31am 19.7 23.1 19.4 98 0.2 CALM 0 0 0 0 1010.7 1010.6 0.0
02/07:30am 19.6 23.0 19.3 98 0.2 CALM 0 0 0 0 1010.8 1010.7 0.0
02/07:18am 19.2 22.5 19.2 100 0.0 CALM 0 0 0 0 1010.7 1010.6 0.0
02/07:00am 18.7 21.8 18.7 100 0.0 CALM 0 0 0 0 1010.5 1010.4 0.0
02/06:55am 18.6 21.7 18.6 100 0.0 CALM 0 0 0 0 1010.5 1010.4 0.0
02/06:51am 18.6 21.7 18.6 100 0.0 CALM 0 0 0 0 1010.3 1010.2 0.0
02/06:30am 18.1 21.0 18.1 100 0.0 CALM 0 0 0 0 1010.1 1010.0 0.0
02/06:00am 18.2 20.7 18.2 100 0.0 N 2 6 1 3 1009.8 1009.7 0.0
02/05:30am 18.2 20.0 18.2 100 0.0 NE 6 7 3 4 1009.7 1009.6 0.0
02/05:00am 17.0 19.2 16.5 97 0.3 CALM 0 0 0 0 1009.6 1009.5 0.0
02/04:30am 16.7 18.7 15.9 95 0.5 CALM 0 0 0 0 1009.1 1009.0 0.0
02/04:00am 17.7 20.1 17.1 96 0.4 CALM 0 0 0 0 1009.0 1008.9 0.0
02/03:53am 17.6 19.9 16.8 95 0.5 CALM 0 0 0 0 1009.0 1008.9 0.0
02/03:30am 17.7 20.1 16.9 95 0.5 CALM 0 0 0 0 1009.0 1008.9 0.0
02/03:06am 18.0 20.4 17.0 94 0.6 CALM 0 0 0 0 1009.0 1008.9 0.0
02/03:00am 18.0 20.4 16.9 93 0.7 CALM 0 0 0 0 1009.0 1008.9 0.0
02/02:30am 17.9 20.1 16.6 92 0.8 CALM 0 0 0 0 1009.2 1009.1 0.0
02/02:00am 18.5 21.0 17.3 93 0.7 CALM 0 0 0 0 1009.3 1009.2 0.0
02/01:30am 18.7 21.2 17.2 91 0.9 CALM 0 0 0 0 1009.6 1009.5 0.0
02/01:00am 19.4 22.1 17.7 90 1.0 CALM 0 0 0 0 1009.9 1009.8 0.0
02/12:30am 19.5 22.2 17.8 90 1.0 CALM 0 0 0 0 1010.1 1010.0 0.0
02/12:00am 19.7 22.3 17.5 87 1.3 CALM 0 0 0 0 1010.4 1010.3 0.0
 
Date/Time
EDT
Temp
°C
App
Temp
°C
Dew
Point
°C
Rel
Hum
%
Delta-T
°C
Wind Press
QNH
hPa
Press
MSL
hPa
Rain since
9am
mm
Dir  Spd
km/h
Gust
km/h
Spd
kts
Gust
kts
01/11:30pm 19.9 21.3 17.9 88 1.2 N 7 9 4 5 1010.4 1010.3 0.0
01/11:00pm 20.8 22.4 18.2 85 1.6 NE 7 11 4 6 1010.5 1010.4 0.0
01/10:30pm 21.2 22.9 18.6 85 1.6 NE 7 9 4 5 1010.6 1010.5 0.0
01/10:00pm 21.2 22.5 18.4 84 1.8 NNE 9 9 5 5 1010.5 1010.4 0.0
01/09:30pm 21.8 22.3 18.4 81 2.1 NNE 13 17 7 9 1010.3 1010.2 0.0
01/09:00pm 22.4 22.7 17.8 75 2.9 NNE 13 20 7 11 1010.0 1009.9 0.0
01/08:30pm 23.3 23.5 18.6 75 3.0 NE 15 24 8 13 1009.6 1009.5 0.0
01/08:00pm 23.4 23.4 18.9 76 2.9 NNE 17 28 9 15 1009.5 1009.4 0.0
01/07:30pm 23.9 24.5 18.5 72 3.4 NE 13 17 7 9 1009.1 1009.0 0.0
01/07:00pm 24.4 24.5 18.3 69 3.9 ENE 15 22 8 12 1008.4 1008.3 0.0
01/06:30pm 25.2 24.5 18.2 65 4.4 ENE 19 30 10 16 1008.0 1007.9 0.0
01/06:00pm 25.6 24.5 17.8 62 4.9 ENE 20 35 11 19 1007.5 1007.4 0.0
01/05:30pm 26.2 24.6 18.3 61 5.0 ENE 24 39 13 21 1006.8 1006.7 0.0
01/05:00pm 26.9 25.8 18.7 60 5.3 ENE 22 39 12 21 1006.7 1006.6 0.0
01/04:30pm 27.6 26.2 18.9 59 5.6 E 24 37 13 20 1006.8 1006.7 0.0
01/04:00pm 27.1 25.9 18.4 59 5.6 E 22 37 12 20 1006.5 1006.4 0.0
01/03:30pm 28.0 25.9 17.2 52 6.8 ESE 24 35 13 19 1007.2 1007.1 0.0
01/03:00pm 29.6 28.8 17.1 47 7.9 ESE 17 30 9 16 1006.5 1006.4 0.0

Other Formats:

Comma delimited format used in spreadsheet applications
http://www.bom.gov.au/fwo/IDN60801/IDN60801.95570.axf

JavaScript Object Notation format (JSON) in row-major order
http://www.bom.gov.au/fwo/IDN60801/IDN60801.95570.json